Time;durP1;ratioP1;P1;durP2;ratioP2;P2;SDS_P1;SDS_P2;PMS_P1;PMS_P2;Temp;Humidity;BMP_temperature;BMP_pressure;BME280_temperature;BME280_humidity;BME280_pressure;Samples;Min_cycle;Max_cycle;Signal;HPM_P1;HPM_P2
2023/04/02 00:01:52;;;;;;;;;;;18.60;87.50;;;;;;5156283;27;20264;-45
2023/04/02 00:04:21;;;;;;;;;;;18.60;87.30;;;;;;5155934;27;19911;-48
2023/04/02 00:06:48;;;;;;;;;;;18.70;87.30;;;;;;5155976;27;20004;-46
2023/04/02 00:09:13;;;;;;;;;;;18.60;87.00;;;;;;5156208;27;20015;-46
2023/04/02 00:11:41;;;;;;;;;;;18.60;87.30;;;;;;5155826;27;19947;-45
2023/04/02 00:14:17;;;;;;;;;;;18.70;87.40;;;;;;5156072;27;19911;-45
2023/04/02 00:16:43;;;;;;;;;;;18.60;87.40;;;;;;5155750;27;19980;-46
2023/04/02 00:19:13;;;;;;;;;;;18.60;87.40;;;;;;5156316;27;20338;-50
2023/04/02 00:21:40;;;;;;;;;;;18.60;87.30;;;;;;5156226;27;19918;-46
2023/04/02 00:24:13;;;;;;;;;;;18.60;87.20;;;;;;5155878;27;20015;-45
2023/04/02 00:26:41;;;;;;;;;;;18.60;87.30;;;;;;5155957;27;19914;-45
2023/04/02 00:29:09;;;;;;;;;;;18.60;87.40;;;;;;5156257;27;19957;-46
2023/04/02 00:31:36;;;;;;;;;;;18.60;87.50;;;;;;5155556;27;19960;-45
2023/04/02 00:34:03;;;;;;;;;;;18.60;87.50;;;;;;5155744;27;20238;-46
2023/04/02 00:36:30;;;;;;;;;;;18.60;87.50;;;;;;5155864;27;19914;-46
2023/04/02 00:38:57;;;;;;;;;;;18.60;87.70;;;;;;5155801;27;19913;-46
2023/04/02 00:41:25;;;;;;;;;;;18.60;87.70;;;;;;5155602;27;19919;-46
2023/04/02 00:43:52;;;;;;;;;;;18.60;87.70;;;;;;5156017;27;19949;-50
2023/04/02 00:46:24;;;;;;;;;;;18.60;87.80;;;;;;5140470;27;20373;-49
2023/04/02 00:48:53;;;;;;;;;;;18.60;87.90;;;;;;5134860;28;19974;-45
2023/04/02 00:51:21;;;;;;;;;;;18.60;88.00;;;;;;5134647;28;19907;-47
2023/04/02 00:53:47;;;;;;;;;;;18.60;88.00;;;;;;5116527;28;19907;-45
2023/04/02 00:56:15;;;;;;;;;;;18.60;88.10;;;;;;5134919;28;19951;-46
2023/04/02 00:58:42;;;;;;;;;;;18.60;88.10;;;;;;5134554;28;19960;-47
2023/04/02 01:01:17;;;;;;;;;;;18.60;88.10;;;;;;5116465;28;19915;-47
2023/04/02 01:03:52;;;;;;;;;;;18.60;88.20;;;;;;5134441;28;19994;-46
2023/04/02 01:06:18;;;;;;;;;;;18.60;88.20;;;;;;5134973;28;19908;-48
2023/04/02 01:08:44;;;;;;;;;;;18.60;88.20;;;;;;5136879;27;20362;-47
2023/04/02 01:11:09;;;;;;;;;;;18.60;88.20;;;;;;5120632;27;20367;-45
2023/04/02 01:13:46;;;;;;;;;;;18.60;88.30;;;;;;5138699;27;19907;-48
2023/04/02 01:16:11;;;;;;;;;;;18.60;88.20;;;;;;5138898;27;19907;-48
2023/04/02 01:18:55;;;;;;;;;;;18.60;88.30;;;;;;5138846;27;19911;-48
2023/04/02 01:21:27;;;;;;;;;;;18.60;88.30;;;;;;5120188;27;19963;-45
2023/04/02 01:23:59;;;;;;;;;;;18.60;88.30;;;;;;5138375;27;19912;-50
2023/04/02 01:26:33;;;;;;;;;;;18.60;88.30;;;;;;5138614;27;19919;-46
2023/04/02 01:29:00;;;;;;;;;;;18.60;88.30;;;;;;5138428;27;19908;-48
2023/04/02 01:31:26;;;;;;;;;;;18.60;88.40;;;;;;5138809;27;19912;-46
2023/04/02 01:33:52;;;;;;;;;;;18.60;88.40;;;;;;5138758;27;19908;-46
2023/04/02 01:36:25;;;;;;;;;;;18.60;88.40;;;;;;5119966;27;19907;-47
2023/04/02 01:39:11;;;;;;;;;;;18.60;88.40;;;;;;5138262;27;19940;-46
2023/04/02 01:41:39;;;;;;;;;;;18.60;88.40;;;;;;5088287;27;19927;-48
2023/04/02 01:44:07;;;;;;;;;;;18.60;88.20;;;;;;5138006;27;19907;-47
2023/04/02 01:46:33;;;;;;;;;;;18.60;88.00;;;;;;5155832;27;19947;-46
2023/04/02 01:49:08;;;;;;;;;;;18.60;87.60;;;;;;5158435;27;20273;-49
2023/04/02 01:51:35;;;;;;;;;;;18.60;87.30;;;;;;5158795;27;19907;-46
2023/04/02 01:54:01;;;;;;;;;;;18.60;87.20;;;;;;5139869;27;19912;-47
2023/04/02 01:56:27;;;;;;;;;;;18.60;87.00;;;;;;5158828;27;19930;-50
2023/04/02 01:58:53;;;;;;;;;;;18.70;87.10;;;;;;5158785;27;20270;-45
2023/04/02 02:01:20;;;;;;;;;;;18.70;87.10;;;;;;5158695;27;20254;-46
2023/04/02 02:03:46;;;;;;;;;;;18.70;87.00;;;;;;5158698;27;19918;-47
2023/04/02 02:06:12;;;;;;;;;;;18.70;86.80;;;;;;5158561;27;19907;-45
2023/04/02 02:08:47;;;;;;;;;;;18.70;86.70;;;;;;5158256;27;19907;-49
2023/04/02 02:11:18;;;;;;;;;;;18.70;86.80;;;;;;5158257;27;19979;-45
2023/04/02 02:13:53;;;;;;;;;;;18.70;86.60;;;;;;5158387;27;19907;-48
2023/04/02 02:16:19;;;;;;;;;;;18.70;86.80;;;;;;5158434;27;19952;-45
2023/04/02 02:18:47;;;;;;;;;;;18.70;87.10;;;;;;5157506;27;19911;-49
2023/04/02 02:21:17;;;;;;;;;;;18.70;87.20;;;;;;5158321;27;19973;-45
2023/04/02 02:23:43;;;;;;;;;;;18.70;87.00;;;;;;5158338;27;20025;-47
2023/04/02 02:26:10;;;;;;;;;;;18.70;87.20;;;;;;5158369;27;19947;-45
2023/04/02 02:28:38;;;;;;;;;;;18.70;87.20;;;;;;5158264;27;20010;-45
2023/04/02 02:31:05;;;;;;;;;;;18.70;87.20;;;;;;5157870;27;19907;-51
2023/04/02 02:33:49;;;;;;;;;;;18.70;87.40;;;;;;5158217;27;19907;-46
2023/04/02 02:36:49;;;;;;;;;;;18.70;87.50;;;;;;5157776;27;20361;-45
2023/04/02 02:39:18;;;;;;;;;;;18.70;87.50;;;;;;5123865;27;19907;-48
2023/04/02 02:41:50;;;;;;;;;;;18.70;87.40;;;;;;5157459;27;19919;-47
2023/04/02 02:44:27;;;;;;;;;;;18.70;87.30;;;;;;5157930;27;19907;-46
2023/04/02 02:46:59;;;;;;;;;;;18.80;87.40;;;;;;5137756;27;19908;-47
2023/04/02 02:49:26;;;;;;;;;;;18.80;87.60;;;;;;5136840;27;19908;-48
2023/04/02 02:51:56;;;;;;;;;;;18.70;87.50;;;;;;5136834;27;20388;-45
2023/04/02 02:54:21;;;;;;;;;;;18.80;87.70;;;;;;5136768;27;20246;-49
2023/04/02 02:56:51;;;;;;;;;;;18.80;87.80;;;;;;5136713;27;19918;-48
2023/04/02 02:59:17;;;;;;;;;;;18.80;87.80;;;;;;5136623;27;20316;-49
2023/04/02 03:01:43;;;;;;;;;;;18.80;87.90;;;;;;5136977;27;19912;-45
2023/04/02 03:04:09;;;;;;;;;;;18.80;88.00;;;;;;5136546;27;19926;-46
2023/04/02 03:06:35;;;;;;;;;;;18.80;87.90;;;;;;5136385;27;19951;-47
2023/04/02 03:09:24;;;;;;;;;;;18.80;88.10;;;;;;5136986;27;19915;-45
2023/04/02 03:12:02;;;;;;;;;;;18.80;88.30;;;;;;5126079;27;20338;-46
2023/04/02 03:14:31;;;;;;;;;;;18.80;88.30;;;;;;5142496;27;19907;-45
2023/04/02 03:16:59;;;;;;;;;;;18.80;88.50;;;;;;5135267;27;20380;-46
2023/04/02 03:19:46;;;;;;;;;;;18.80;88.50;;;;;;5156980;27;19907;-46
2023/04/02 03:22:22;;;;;;;;;;;18.80;88.60;;;;;;5157203;27;19911;-49
2023/04/02 03:24:53;;;;;;;;;;;18.80;88.50;;;;;;5156856;27;20026;-49
2023/04/02 03:27:28;;;;;;;;;;;18.80;88.40;;;;;;5157024;27;19907;-46
2023/04/02 03:30:09;;;;;;;;;;;18.80;88.50;;;;;;5145939;27;20002;-46
2023/04/02 03:32:37;;;;;;;;;;;18.80;88.50;;;;;;5135758;27;19908;-46
2023/04/02 03:35:20;;;;;;;;;;;18.80;88.50;;;;;;5150619;27;19907;-47
2023/04/02 03:37:54;;;;;;;;;;;18.80;88.50;;;;;;5156910;27;19938;-47
2023/04/02 03:40:25;;;;;;;;;;;18.80;88.50;;;;;;5156906;27;19907;-44
2023/04/02 03:42:53;;;;;;;;;;;18.80;88.40;;;;;;5156912;27;19919;-48
2023/04/02 03:45:21;;;;;;;;;;;18.80;88.40;;;;;;5149922;27;20007;-45
2023/04/02 03:48:00;;;;;;;;;;;18.80;88.50;;;;;;5135782;27;19912;-46
2023/04/02 03:50:31;;;;;;;;;;;18.80;88.60;;;;;;5136162;27;19914;-46
2023/04/02 03:52:58;;;;;;;;;;;18.80;88.50;;;;;;5133900;27;19911;-50
2023/04/02 03:55:27;;;;;;;;;;;18.80;88.60;;;;;;5141889;27;19907;-45
2023/04/02 03:57:58;;;;;;;;;;;18.80;88.60;;;;;;5135776;27;19903;-47
2023/04/02 04:00:44;;;;;;;;;;;18.80;88.70;;;;;;5156560;27;19942;-48
2023/04/02 04:03:18;;;;;;;;;;;18.80;88.60;;;;;;5113912;27;19911;-47
2023/04/02 04:05:52;;;;;;;;;;;18.80;88.60;;;;;;5128996;27;20309;-45
2023/04/02 04:08:21;;;;;;;;;;;18.80;88.60;;;;;;5136565;27;19921;-46
2023/04/02 04:10:51;;;;;;;;;;;18.80;88.70;;;;;;5146878;27;19921;-47
2023/04/02 04:13:19;;;;;;;;;;;18.80;88.60;;;;;;5135515;27;19908;-46
2023/04/02 04:15:45;;;;;;;;;;;18.80;88.40;;;;;;5143103;27;19911;-47
2023/04/02 04:18:33;;;;;;;;;;;18.80;88.60;;;;;;5130415;27;20011;-49
2023/04/02 04:21:04;;;;;;;;;;;18.80;88.60;;;;;;5149777;27;20276;-48
2023/04/02 04:23:29;;;;;;;;;;;18.80;88.50;;;;;;5148618;27;19922;-47
2023/04/02 04:25:58;;;;;;;;;;;18.80;88.50;;;;;;5155975;27;19908;-45
2023/04/02 04:28:41;;;;;;;;;;;18.80;88.60;;;;;;5147002;27;20358;-47
2023/04/02 04:31:09;;;;;;;;;;;18.80;88.70;;;;;;5135270;27;19911;-45
2023/04/02 04:33:39;;;;;;;;;;;18.80;88.70;;;;;;5134723;27;19908;-50
2023/04/02 04:36:20;;;;;;;;;;;18.80;88.60;;;;;;5134762;27;20365;-50
2023/04/02 04:38:54;;;;;;;;;;;18.80;88.70;;;;;;5116935;27;19908;-46
2023/04/02 04:41:23;;;;;;;;;;;18.80;88.70;;;;;;5134435;27;19923;-49
2023/04/02 04:43:48;;;;;;;;;;;18.80;88.70;;;;;;5134615;28;20003;-44
2023/04/02 04:46:20;;;;;;;;;;;18.80;88.70;;;;;;5149465;27;19956;-49
2023/04/02 04:49:01;;;;;;;;;;;18.80;88.50;;;;;;5155677;27;19918;-46
2023/04/02 04:51:46;;;;;;;;;;;18.80;88.40;;;;;;5155401;27;19972;-45
2023/04/02 04:54:13;;;;;;;;;;;18.80;88.60;;;;;;5154730;27;19930;-47
2023/04/02 04:56:38;;;;;;;;;;;18.80;88.60;;;;;;5155649;27;19914;-47
2023/04/02 04:59:11;;;;;;;;;;;18.80;88.60;;;;;;5155372;27;19907;-45
2023/04/02 05:01:43;;;;;;;;;;;18.80;88.60;;;;;;5155359;27;19915;-46
2023/04/02 05:04:13;;;;;;;;;;;18.80;88.60;;;;;;5155572;27;19917;-46
2023/04/02 05:06:50;;;;;;;;;;;18.80;88.60;;;;;;5119808;27;20333;-49
2023/04/02 05:09:23;;;;;;;;;;;18.80;88.60;;;;;;5155370;27;19918;-45
2023/04/02 05:11:57;;;;;;;;;;;18.80;88.60;;;;;;5155408;27;19907;-47
2023/04/02 05:14:42;;;;;;;;;;;18.80;88.60;;;;;;5155733;27;19932;-45
2023/04/02 05:17:34;;;;;;;;;;;18.80;88.40;;;;;;5155555;27;19907;-49
2023/04/02 05:20:26;;;;;;;;;;;18.80;88.50;;;;;;5131028;27;19911;-46
2023/04/02 05:22:57;;;;;;;;;;;18.80;88.50;;;;;;5152103;27;19955;-47
2023/04/02 05:25:27;;;;;;;;;;;18.80;89.00;;;;;;5155195;27;19932;-48
2023/04/02 05:27:56;;;;;;;;;;;18.80;88.50;;;;;;5155291;27;19913;-45
2023/04/02 05:30:22;;;;;;;;;;;18.80;88.50;;;;;;5155310;27;19947;-47
2023/04/02 05:32:56;;;;;;;;;;;18.80;88.60;;;;;;5136685;27;19967;-48
2023/04/02 05:35:24;;;;;;;;;;;18.80;88.60;;;;;;5155254;27;19914;-46
2023/04/02 05:37:50;;;;;;;;;;;18.80;88.60;;;;;;5155283;27;19957;-45
2023/04/02 05:40:22;;;;;;;;;;;18.80;88.70;;;;;;5155583;27;19907;-48
2023/04/02 05:42:48;;;;;;;;;;;18.80;88.70;;;;;;5155214;27;19919;-45
2023/04/02 05:45:25;;;;;;;;;;;18.80;88.60;;;;;;5148984;27;19911;-51
2023/04/02 05:47:52;;;;;;;;;;;18.80;88.70;;;;;;5134543;28;19913;-50
2023/04/02 05:50:23;;;;;;;;;;;18.80;88.70;;;;;;5134389;28;19907;-48
2023/04/02 05:52:52;;;;;;;;;;;18.80;88.70;;;;;;5134209;27;19912;-48
2023/04/02 05:55:18;;;;;;;;;;;18.80;88.60;;;;;;5137135;27;20364;-49
2023/04/02 05:57:47;;;;;;;;;;;18.80;88.70;;;;;;5137706;27;19907;-46
2023/04/02 06:00:24;;;;;;;;;;;18.80;88.60;;;;;;5138038;27;19908;-46
2023/04/02 06:02:54;;;;;;;;;;;18.80;88.50;;;;;;5137462;27;19916;-50
2023/04/02 06:05:22;;;;;;;;;;;18.80;88.50;;;;;;5137588;27;19914;-48
2023/04/02 06:07:51;;;;;;;;;;;18.80;88.40;;;;;;5137561;27;19907;-46
2023/04/02 06:10:22;;;;;;;;;;;18.80;88.40;;;;;;5138093;27;19919;-47
2023/04/02 06:12:50;;;;;;;;;;;18.80;88.30;;;;;;5140009;27;19962;-49
2023/04/02 06:15:17;;;;;;;;;;;18.80;88.20;;;;;;5147662;27;19976;-48
2023/04/02 06:17:46;;;;;;;;;;;18.80;88.10;;;;;;5138463;27;19915;-50
2023/04/02 06:20:14;;;;;;;;;;;18.80;88.00;;;;;;5135499;27;20299;-50
2023/04/02 06:22:42;;;;;;;;;;;18.80;88.10;;;;;;5141153;27;19923;-48
2023/04/02 06:25:11;;;;;;;;;;;18.80;88.30;;;;;;5136701;27;19919;-48
2023/04/02 06:27:38;;;;;;;;;;;18.80;88.20;;;;;;5135784;27;20373;-48
2023/04/02 06:30:06;;;;;;;;;;;18.80;88.20;;;;;;5155887;27;19911;-49
2023/04/02 06:32:31;;;;;;;;;;;18.80;88.20;;;;;;5152578;27;19942;-47
2023/04/02 06:34:57;;;;;;;;;;;18.80;88.20;;;;;;5137038;27;20004;-48
2023/04/02 06:37:28;;;;;;;;;;;18.80;88.30;;;;;;5137092;27;19993;-46
2023/04/02 06:39:55;;;;;;;;;;;18.80;88.20;;;;;;5137136;27;19965;-46
2023/04/02 06:42:23;;;;;;;;;;;18.80;88.10;;;;;;5137217;27;19973;-44
2023/04/02 06:44:49;;;;;;;;;;;18.80;88.00;;;;;;5143087;27;20265;-45
2023/04/02 06:47:16;;;;;;;;;;;18.80;87.90;;;;;;5157552;27;19914;-45
2023/04/02 06:49:44;;;;;;;;;;;18.80;87.90;;;;;;5157753;27;20361;-45
2023/04/02 06:52:22;;;;;;;;;;;18.80;88.00;;;;;;5122078;27;19914;-45
2023/04/02 06:54:48;;;;;;;;;;;18.90;87.80;;;;;;5156788;27;19967;-46
2023/04/02 06:57:13;;;;;;;;;;;18.90;88.10;;;;;;5136936;27;20362;-47
2023/04/02 06:59:38;;;;;;;;;;;18.80;88.10;;;;;;5118599;27;19914;-50
2023/04/02 07:02:13;;;;;;;;;;;18.90;88.10;;;;;;5134838;27;19916;-46
2023/04/02 07:04:39;;;;;;;;;;;18.90;88.00;;;;;;5149441;27;20319;-50
2023/04/02 07:07:04;;;;;;;;;;;18.90;88.20;;;;;;5157496;27;19914;-48
2023/04/02 07:09:30;;;;;;;;;;;18.90;88.10;;;;;;5137534;27;19929;-46
2023/04/02 07:11:55;;;;;;;;;;;18.90;87.90;;;;;;5145869;27;19918;-49
2023/04/02 07:14:21;;;;;;;;;;;18.90;88.00;;;;;;5146962;27;19917;-49
2023/04/02 07:16:46;;;;;;;;;;;18.80;87.80;;;;;;5134092;27;19915;-47
2023/04/02 07:19:18;;;;;;;;;;;18.90;87.90;;;;;;5135014;27;19990;-45
2023/04/02 07:21:44;;;;;;;;;;;18.90;88.80;;;;;;5133845;27;19911;-47
2023/04/02 07:24:10;;;;;;;;;;;18.80;87.30;;;;;;5116854;27;19916;-48
2023/04/02 07:26:35;;;;;;;;;;;18.90;87.00;;;;;;5135279;27;19907;-46
2023/04/02 07:29:01;;;;;;;;;;;18.90;86.50;;;;;;5136067;27;20338;-44
2023/04/02 07:31:27;;;;;;;;;;;18.90;86.30;;;;;;5133116;27;19911;-50
2023/04/02 07:33:53;;;;;;;;;;;18.80;86.10;;;;;;5134772;27;19998;-45
2023/04/02 07:36:20;;;;;;;;;;;18.80;85.90;;;;;;5135862;27;19903;-46
2023/04/02 07:38:46;;;;;;;;;;;18.80;85.80;;;;;;5135432;27;19907;-46
2023/04/02 07:41:12;;;;;;;;;;;18.80;86.00;;;;;;5117350;27;20373;-50
2023/04/02 07:43:38;;;;;;;;;;;18.80;85.80;;;;;;5116274;27;20280;-46
2023/04/02 07:46:04;;;;;;;;;;;18.80;85.70;;;;;;5147940;27;20380;-46
2023/04/02 07:48:30;;;;;;;;;;;18.80;85.50;;;;;;5142633;27;19907;-45
2023/04/02 07:50:55;;;;;;;;;;;18.80;85.40;;;;;;5131990;27;20262;-45
2023/04/02 07:53:34;;;;;;;;;;;18.80;85.40;;;;;;5135784;27;19904;-45
2023/04/02 07:56:00;;;;;;;;;;;18.80;85.10;;;;;;5116265;27;19921;-48
2023/04/02 07:58:26;;;;;;;;;;;18.80;85.20;;;;;;5135436;27;19907;-45
2023/04/02 08:00:52;;;;;;;;;;;18.70;85.10;;;;;;5132116;27;20322;-49
2023/04/02 08:03:17;;;;;;;;;;;18.70;85.70;;;;;;5135917;27;20304;-47
2023/04/02 08:05:48;;;;;;;;;;;18.70;85.00;;;;;;5134562;27;19907;-50
2023/04/02 08:08:13;;;;;;;;;;;18.70;84.90;;;;;;5133013;27;19952;-46
2023/04/02 08:10:39;;;;;;;;;;;18.70;84.80;;;;;;5133215;27;19904;-48
2023/04/02 08:13:04;;;;;;;;;;;18.70;84.80;;;;;;5113688;27;19920;-47
2023/04/02 08:15:30;;;;;;;;;;;18.70;84.70;;;;;;5134334;27;19932;-47
2023/04/02 08:17:55;;;;;;;;;;;18.70;85.50;;;;;;5147283;27;20235;-44
2023/04/02 08:20:21;;;;;;;;;;;18.70;85.90;;;;;;5152041;27;19972;-47
2023/04/02 08:22:47;;;;;;;;;;;18.70;86.20;;;;;;5148539;27;20420;-47
2023/04/02 08:25:13;;;;;;;;;;;18.70;86.60;;;;;;5135461;27;19914;-46
2023/04/02 08:27:39;;;;;;;;;;;18.70;86.30;;;;;;5134436;27;19907;-48
2023/04/02 08:30:06;;;;;;;;;;;18.80;85.00;;;;;;5133820;27;19914;-46
2023/04/02 08:32:32;;;;;;;;;;;18.70;84.60;;;;;;5114469;27;19907;-45
2023/04/02 08:34:57;;;;;;;;;;;18.70;84.40;;;;;;5133957;27;19914;-44
2023/04/02 08:37:23;;;;;;;;;;;18.70;84.30;;;;;;5133374;27;19907;-46
2023/04/02 08:39:48;;;;;;;;;;;18.70;85.50;;;;;;5133140;27;19907;-49
2023/04/02 08:42:16;;;;;;;;;;;18.70;85.70;;;;;;5150630;27;19919;-50
2023/04/02 08:44:42;;;;;;;;;;;18.70;85.90;;;;;;5153596;27;20294;-51
2023/04/02 08:47:08;;;;;;;;;;;18.70;85.80;;;;;;5135336;28;19958;-50
2023/04/02 08:49:36;;;;;;;;;;;18.70;86.10;;;;;;5134995;28;19909;-50
2023/04/02 08:52:01;;;;;;;;;;;18.70;86.30;;;;;;5134939;28;19917;-50
2023/04/02 08:54:29;;;;;;;;;;;18.70;86.30;;;;;;5134473;28;19904;-50
2023/04/02 08:56:57;;;;;;;;;;;18.70;86.50;;;;;;5137660;27;19915;-50
2023/04/02 08:59:26;;;;;;;;;;;18.70;86.40;;;;;;5122198;27;20307;-52
2023/04/02 09:01:58;;;;;;;;;;;18.70;86.50;;;;;;5140527;27;20350;-51
2023/04/02 09:04:25;;;;;;;;;;;18.70;86.60;;;;;;5131556;27;19907;-49
2023/04/02 09:06:52;;;;;;;;;;;18.70;86.80;;;;;;5152218;27;19922;-47
2023/04/02 09:09:18;;;;;;;;;;;18.70;86.90;;;;;;5130156;27;19907;-51
2023/04/02 09:11:51;;;;;;;;;;;18.70;87.10;;;;;;5129547;27;20243;-50
2023/04/02 09:14:18;;;;;;;;;;;18.70;87.00;;;;;;5131883;27;19976;-49
2023/04/02 09:16:45;;;;;;;;;;;18.70;87.00;;;;;;5112834;28;19936;-49
2023/04/02 09:19:34;;;;;;;;;;;18.70;87.40;;;;;;5113340;28;19911;-49
2023/04/02 09:22:19;;;;;;;;;;;18.70;87.30;;;;;;5119941;28;20016;-48
2023/04/02 09:24:49;;;;;;;;;;;18.70;87.40;;;;;;5111684;28;19949;-50
2023/04/02 09:27:22;;;;;;;;;;;18.70;87.30;;;;;;5125199;28;19907;-50
2023/04/02 09:29:50;;;;;;;;;;;18.70;87.30;;;;;;5141563;27;20052;-48
2023/04/02 09:32:31;;;;;;;;;;;18.70;87.40;;;;;;5145066;27;19934;-50
2023/04/02 09:35:25;;;;;;;;;;;18.60;87.40;;;;;;5138223;27;19911;-54
2023/04/02 09:38:06;;;;;;;;;;;18.70;87.50;;;;;;5106499;27;19912;-47
2023/04/02 09:40:39;;;;;;;;;;;18.70;87.70;;;;;;5137827;27;19915;-48
2023/04/02 09:43:11;;;;;;;;;;;18.70;87.80;;;;;;5136142;27;19975;-49
2023/04/02 09:45:37;;;;;;;;;;;18.70;87.80;;;;;;5127550;27;19939;-51
2023/04/02 09:48:14;;;;;;;;;;;18.70;87.80;;;;;;5137801;27;19970;-52
2023/04/02 09:50:39;;;;;;;;;;;18.70;88.10;;;;;;5137509;27;19907;-48
2023/04/02 09:53:22;;;;;;;;;;;18.60;87.90;;;;;;5137525;27;19973;-53
2023/04/02 09:55:48;;;;;;;;;;;18.70;87.90;;;;;;5137721;27;19945;-48
2023/04/02 09:58:15;;;;;;;;;;;18.70;88.00;;;;;;5137882;27;20354;-49
2023/04/02 10:00:50;;;;;;;;;;;18.70;87.90;;;;;;5137445;27;19907;-49
2023/04/02 10:03:16;;;;;;;;;;;18.70;88.00;;;;;;5137485;27;19923;-48
2023/04/02 10:05:42;;;;;;;;;;;18.70;87.90;;;;;;5137550;27;20349;-50
2023/04/02 10:08:18;;;;;;;;;;;18.70;87.90;;;;;;5137648;27;19919;-49
2023/04/02 10:10:49;;;;;;;;;;;18.70;87.90;;;;;;5137605;27;19908;-48
2023/04/02 10:13:26;;;;;;;;;;;18.70;87.90;;;;;;5137409;27;19952;-50
2023/04/02 10:15:51;;;;;;;;;;;18.70;88.00;;;;;;5137331;27;19964;-51
2023/04/02 10:18:23;;;;;;;;;;;18.70;88.10;;;;;;5137782;27;19947;-50
2023/04/02 10:20:50;;;;;;;;;;;18.70;88.00;;;;;;5118761;27;19953;-51
2023/04/02 10:23:16;;;;;;;;;;;18.70;88.20;;;;;;5119076;27;20273;-50
2023/04/02 10:25:46;;;;;;;;;;;18.70;88.20;;;;;;5137069;27;19907;-49
2023/04/02 10:28:15;;;;;;;;;;;18.70;88.30;;;;;;5137188;27;20373;-48
2023/04/02 10:30:56;;;;;;;;;;;18.70;88.30;;;;;;5137278;27;19907;-49
2023/04/02 10:33:34;;;;;;;;;;;18.70;88.40;;;;;;5118832;27;19980;-49
2023/04/02 10:36:10;;;;;;;;;;;18.70;88.40;;;;;;5136717;27;20384;-49
2023/04/02 10:38:37;;;;;;;;;;;18.70;88.40;;;;;;5137100;27;20243;-46
2023/04/02 10:41:08;;;;;;;;;;;18.70;88.50;;;;;;5136272;27;19920;-48
2023/04/02 10:43:50;;;;;;;;;;;18.70;88.60;;;;;;5136798;27;19912;-51
2023/04/02 10:46:15;;;;;;;;;;;18.70;88.60;;;;;;5151640;27;19907;-50
2023/04/02 10:48:49;;;;;;;;;;;18.70;88.70;;;;;;5157374;27;19907;-52
2023/04/02 10:51:27;;;;;;;;;;;18.70;88.70;;;;;;5138950;27;19907;-47
2023/04/02 10:53:58;;;;;;;;;;;18.70;88.70;;;;;;5128773;27;19908;-49
2023/04/02 10:56:25;;;;;;;;;;;18.70;88.80;;;;;;5136496;27;20369;-49
2023/04/02 10:59:01;;;;;;;;;;;18.70;88.90;;;;;;5136421;27;19908;-51
2023/04/02 11:01:28;;;;;;;;;;;18.70;88.80;;;;;;5136220;27;20060;-50
2023/04/02 11:04:01;;;;;;;;;;;18.70;88.90;;;;;;5132374;27;19919;-51
2023/04/02 11:06:30;;;;;;;;;;;18.70;88.80;;;;;;5133260;27;19921;-49
2023/04/02 11:08:57;;;;;;;;;;;18.70;89.10;;;;;;5136317;27;19907;-48
2023/04/02 11:11:25;;;;;;;;;;;18.70;88.90;;;;;;5131595;27;20334;-51
2023/04/02 11:14:02;;;;;;;;;;;18.70;88.90;;;;;;5117786;27;19932;-50
2023/04/02 11:16:28;;;;;;;;;;;18.70;88.90;;;;;;5134803;27;19911;-50
2023/04/02 11:19:20;;;;;;;;;;;18.70;88.80;;;;;;5133845;27;19932;-48
2023/04/02 11:21:47;;;;;;;;;;;18.70;88.60;;;;;;5142164;27;19912;-50
2023/04/02 11:24:23;;;;;;;;;;;18.70;88.60;;;;;;5134182;27;19939;-52
2023/04/02 11:26:49;;;;;;;;;;;18.70;88.50;;;;;;5135122;27;19956;-50
2023/04/02 11:29:23;;;;;;;;;;;18.70;88.30;;;;;;5134735;27;19992;-52
2023/04/02 11:31:50;;;;;;;;;;;18.70;88.30;;;;;;5135465;27;19912;-52
2023/04/02 11:34:34;;;;;;;;;;;18.70;88.30;;;;;;5136116;27;19947;-48
2023/04/02 11:37:00;;;;;;;;;;;18.70;88.30;;;;;;5135604;27;20002;-51
2023/04/02 11:39:44;;;;;;;;;;;18.70;88.30;;;;;;5135114;27;19912;-51
2023/04/02 11:42:20;;;;;;;;;;;18.70;88.40;;;;;;5135854;27;19920;-49
2023/04/02 11:44:46;;;;;;;;;;;18.70;88.40;;;;;;5137239;27;19919;-49
2023/04/02 11:47:16;;;;;;;;;;;18.70;88.30;;;;;;5156564;27;19907;-49
2023/04/02 11:50:08;;;;;;;;;;;18.70;88.30;;;;;;5134314;27;19980;-49
2023/04/02 11:52:53;;;;;;;;;;;18.70;88.30;;;;;;5108235;27;19915;-49
2023/04/02 11:55:24;;;;;;;;;;;18.80;88.20;;;;;;5116814;27;19911;-49
2023/04/02 11:57:54;;;;;;;;;;;18.80;88.20;;;;;;5126179;27;19918;-47
2023/04/02 12:00:32;;;;;;;;;;;18.80;88.20;;;;;;5134530;27;20145;-48
2023/04/02 12:03:06;;;;;;;;;;;18.80;88.20;;;;;;5127885;27;19923;-47
2023/04/02 12:05:36;;;;;;;;;;;18.80;88.20;;;;;;5133365;27;19919;-48
2023/04/02 12:08:06;;;;;;;;;;;18.80;88.30;;;;;;5133005;27;20098;-52
2023/04/02 12:10:50;;;;;;;;;;;18.80;88.20;;;;;;5134388;27;19914;-48
2023/04/02 12:13:19;;;;;;;;;;;18.80;88.30;;;;;;5131582;27;19911;-53
2023/04/02 12:15:45;;;;;;;;;;;18.80;88.10;;;;;;5135370;27;20354;-48
2023/04/02 12:18:14;;;;;;;;;;;18.80;88.20;;;;;;5131992;27;19953;-51
2023/04/02 12:20:41;;;;;;;;;;;18.80;88.10;;;;;;5133005;27;19912;-51
2023/04/02 12:23:14;;;;;;;;;;;18.80;83.60;;;;;;5130223;27;19923;-51
2023/04/02 12:25:40;;;;;;;;;;;18.70;83.30;;;;;;5132379;27;19919;-52
2023/04/02 12:28:08;;;;;;;;;;;18.70;84.60;;;;;;5134051;27;19912;-48
2023/04/02 12:30:34;;;;;;;;;;;18.70;85.40;;;;;;5135159;27;19907;-53
2023/04/02 12:33:18;;;;;;;;;;;18.70;86.10;;;;;;5135061;27;19907;-49
2023/04/02 12:35:44;;;;;;;;;;;18.60;86.50;;;;;;5134854;27;20278;-53
2023/04/02 12:38:19;;;;;;;;;;;18.60;86.90;;;;;;5134983;27;19915;-49
2023/04/02 12:40:56;;;;;;;;;;;18.70;87.00;;;;;;5134836;27;20002;-51
2023/04/02 12:43:22;;;;;;;;;;;18.60;87.10;;;;;;5134740;27;19919;-47
2023/04/02 12:45:50;;;;;;;;;;;18.70;87.20;;;;;;5134948;27;19998;-52
2023/04/02 12:48:16;;;;;;;;;;;18.70;87.20;;;;;;5134608;27;19908;-49
2023/04/02 12:50:41;;;;;;;;;;;18.70;87.40;;;;;;5116277;28;19998;-51
2023/04/02 12:53:17;;;;;;;;;;;18.80;87.40;;;;;;5134753;28;19972;-50
2023/04/02 12:55:45;;;;;;;;;;;18.70;87.40;;;;;;5134470;28;19911;-53
2023/04/02 12:58:22;;;;;;;;;;;18.70;87.70;;;;;;5134480;28;19911;-51
2023/04/02 13:00:48;;;;;;;;;;;18.70;87.70;;;;;;5134504;28;19958;-52
2023/04/02 13:03:16;;;;;;;;;;;18.70;87.80;;;;;;5135760;27;19955;-53
2023/04/02 13:05:55;;;;;;;;;;;18.70;87.80;;;;;;5138871;27;19907;-51
2023/04/02 13:08:26;;;;;;;;;;;18.70;87.80;;;;;;5138883;27;19937;-52
2023/04/02 13:10:54;;;;;;;;;;;18.70;87.90;;;;;;5138675;27;19947;-52
2023/04/02 13:13:22;;;;;;;;;;;18.70;87.90;;;;;;5138445;27;19907;-50
2023/04/02 13:15:58;;;;;;;;;;;18.70;87.90;;;;;;5138425;27;19911;-47
2023/04/02 13:18:24;;;;;;;;;;;18.80;88.10;;;;;;5138762;27;19923;-50
2023/04/02 13:20:56;;;;;;;;;;;18.70;87.90;;;;;;5143148;27;19907;-52
2023/04/02 13:23:22;;;;;;;;;;;18.80;87.90;;;;;;5154203;27;19919;-53
2023/04/02 13:25:48;;;;;;;;;;;18.80;88.00;;;;;;5157478;27;19914;-50
2023/04/02 13:28:14;;;;;;;;;;;18.80;88.00;;;;;;5158653;27;19907;-48
2023/04/02 13:30:40;;;;;;;;;;;18.80;87.90;;;;;;5159371;27;20021;-51
2023/04/02 13:33:06;;;;;;;;;;;18.80;87.90;;;;;;5159009;27;19907;-55
2023/04/02 13:35:31;;;;;;;;;;;18.80;87.90;;;;;;5140530;27;20326;-48
2023/04/02 13:37:57;;;;;;;;;;;18.80;87.90;;;;;;5159145;27;19907;-48
2023/04/02 13:40:23;;;;;;;;;;;18.80;88.00;;;;;;5158824;27;19907;-47
2023/04/02 13:42:49;;;;;;;;;;;18.90;88.00;;;;;;5140467;27;19928;-54
2023/04/02 13:45:20;;;;;;;;;;;18.80;88.00;;;;;;5133258;27;19915;-50
2023/04/02 13:47:46;;;;;;;;;;;18.80;87.90;;;;;;5137888;27;19907;-46
2023/04/02 13:50:15;;;;;;;;;;;18.80;87.90;;;;;;5119598;27;19990;-49
2023/04/02 13:52:40;;;;;;;;;;;18.80;87.90;;;;;;5138119;27;19908;-52
2023/04/02 13:55:07;;;;;;;;;;;18.80;88.00;;;;;;5138063;27;19922;-46
2023/04/02 13:57:33;;;;;;;;;;;18.80;88.00;;;;;;5137631;27;19938;-49
2023/04/02 13:59:58;;;;;;;;;;;18.80;88.00;;;;;;5141642;27;19915;-52
2023/04/02 14:02:24;;;;;;;;;;;18.80;88.10;;;;;;5137403;27;20014;-47
2023/04/02 14:05:14;;;;;;;;;;;18.80;88.00;;;;;;5137782;27;19915;-47
2023/04/02 14:07:46;;;;;;;;;;;18.80;88.10;;;;;;5117352;28;19994;-50
2023/04/02 14:10:20;;;;;;;;;;;18.80;88.10;;;;;;5117012;28;19908;-51
2023/04/02 14:12:52;;;;;;;;;;;18.80;88.10;;;;;;5116802;28;20347;-52
2023/04/02 14:15:23;;;;;;;;;;;18.80;88.20;;;;;;5116145;28;19915;-49
2023/04/02 14:18:01;;;;;;;;;;;18.80;88.20;;;;;;5126054;27;19915;-50
2023/04/02 14:20:35;;;;;;;;;;;18.80;88.30;;;;;;5123735;27;20394;-50
2023/04/02 14:23:19;;;;;;;;;;;18.80;88.30;;;;;;5134452;27;19919;-52
2023/04/02 14:25:45;;;;;;;;;;;18.80;88.40;;;;;;5125795;27;20405;-49
2023/04/02 14:28:10;;;;;;;;;;;18.90;88.50;;;;;;5156721;27;19941;-54
2023/04/02 14:30:44;;;;;;;;;;;18.80;88.40;;;;;;5157980;27;19935;-50
2023/04/02 14:33:23;;;;;;;;;;;18.80;88.50;;;;;;5158245;27;19903;-49
2023/04/02 14:35:53;;;;;;;;;;;18.80;88.60;;;;;;5143736;27;19911;-47